sensor_id;sensor_type;location;lat;lon;timestamp;temperature;humidity
18406;DHT22;9329;48.720;9.588;2022-11-04T00:00:46;13.10;99.90
18406;DHT22;9329;48.720;9.588;2022-11-04T00:03:13;13.20;99.90
18406;DHT22;9329;48.720;9.588;2022-11-04T00:05:41;12.90;99.90
18406;DHT22;9329;48.720;9.588;2022-11-04T00:08:08;12.80;99.90
18406;DHT22;9329;48.720;9.588;2022-11-04T00:10:53;12.90;99.90
18406;DHT22;9329;48.720;9.588;2022-11-04T00:13:37;12.90;99.90
18406;DHT22;9329;48.720;9.588;2022-11-04T00:16:05;13.10;99.90
18406;DHT22;9329;48.720;9.588;2022-11-04T00:18:49;13.10;99.90
18406;DHT22;9329;48.720;9.588;2022-11-04T00:21:18;13.30;99.90
18406;DHT22;9329;48.720;9.588;2022-11-04T00:24:02;13.50;99.90
18406;DHT22;9329;48.720;9.588;2022-11-04T00:26:47;13.10;99.90
18406;DHT22;9329;48.720;9.588;2022-11-04T00:29:31;13.40;99.90
18406;DHT22;9329;48.720;9.588;2022-11-04T00:31:58;13.20;99.90
18406;DHT22;9329;48.720;9.588;2022-11-04T00:34:43;13.30;99.90
18406;DHT22;9329;48.720;9.588;2022-11-04T00:37:11;13.30;99.90
18406;DHT22;9329;48.720;9.588;2022-11-04T00:39:38;13.20;99.90
18406;DHT22;9329;48.720;9.588;2022-11-04T00:42:05;13.20;99.90
18406;DHT22;9329;48.720;9.588;2022-11-04T00:44:32;13.50;99.90
18406;DHT22;9329;48.720;9.588;2022-11-04T00:46:59;13.60;99.90
18406;DHT22;9329;48.720;9.588;2022-11-04T00:49:26;13.60;99.90
18406;DHT22;9329;48.720;9.588;2022-11-04T00:51:53;13.70;99.90
18406;DHT22;9329;48.720;9.588;2022-11-04T00:54:21;13.80;99.90
18406;DHT22;9329;48.720;9.588;2022-11-04T00:56:48;13.70;99.90
18406;DHT22;9329;48.720;9.588;2022-11-04T00:59:16;13.70;99.90
18406;DHT22;9329;48.720;9.588;2022-11-04T01:01:43;13.70;99.90
18406;DHT22;9329;48.720;9.588;2022-11-04T01:04:10;13.50;99.90
18406;DHT22;9329;48.720;9.588;2022-11-04T01:06:37;13.10;99.90
18406;DHT22;9329;48.720;9.588;2022-11-04T01:09:06;13.50;99.90
18406;DHT22;9329;48.720;9.588;2022-11-04T01:11:35;13.60;99.90
18406;DHT22;9329;48.720;9.588;2022-11-04T01:14:02;13.80;99.90
18406;DHT22;9329;48.720;9.588;2022-11-04T01:16:30;13.90;99.90
18406;DHT22;9329;48.720;9.588;2022-11-04T01:18:57;13.80;99.90
18406;DHT22;9329;48.720;9.588;2022-11-04T01:21:25;13.20;99.90
18406;DHT22;9329;48.720;9.588;2022-11-04T01:23:53;13.20;99.90
18406;DHT22;9329;48.720;9.588;2022-11-04T01:26:21;12.90;99.90
18406;DHT22;9329;48.720;9.588;2022-11-04T01:28:51;13.40;99.90
18406;DHT22;9329;48.720;9.588;2022-11-04T01:31:21;13.40;99.90
18406;DHT22;9329;48.720;9.588;2022-11-04T01:33:49;13.70;99.90
18406;DHT22;9329;48.720;9.588;2022-11-04T01:36:17;13.70;99.90
18406;DHT22;9329;48.720;9.588;2022-11-04T01:38:45;13.80;99.90
18406;DHT22;9329;48.720;9.588;2022-11-04T01:41:16;13.90;99.90
18406;DHT22;9329;48.720;9.588;2022-11-04T01:43:47;13.70;99.90
18406;DHT22;9329;48.720;9.588;2022-11-04T01:46:23;13.80;99.90
18406;DHT22;9329;48.720;9.588;2022-11-04T01:48:52;13.60;99.90
18406;DHT22;9329;48.720;9.588;2022-11-04T01:51:20;13.90;99.90
18406;DHT22;9329;48.720;9.588;2022-11-04T01:53:50;13.70;99.90
18406;DHT22;9329;48.720;9.588;2022-11-04T01:56:19;13.30;99.90
18406;DHT22;9329;48.720;9.588;2022-11-04T01:58:49;13.40;99.90
18406;DHT22;9329;48.720;9.588;2022-11-04T02:01:19;13.40;99.90
18406;DHT22;9329;48.720;9.588;2022-11-04T02:03:49;13.10;99.90
18406;DHT22;9329;48.720;9.588;2022-11-04T02:06:18;12.90;99.90
18406;DHT22;9329;48.720;9.588;2022-11-04T02:08:47;13.10;99.90
18406;DHT22;9329;48.720;9.588;2022-11-04T02:11:14;13.10;99.90
18406;DHT22;9329;48.720;9.588;2022-11-04T02:13:55;13.00;99.90
18406;DHT22;9329;48.720;9.588;2022-11-04T02:16:31;12.70;99.90
18406;DHT22;9329;48.720;9.588;2022-11-04T02:19:11;13.10;99.90
18406;DHT22;9329;48.720;9.588;2022-11-04T02:25:11;12.80;99.90
18406;DHT22;9329;48.720;9.588;2022-11-04T02:27:59;13.10;99.90
18406;DHT22;9329;48.720;9.588;2022-11-04T02:30:39;13.20;99.90
18406;DHT22;9329;48.720;9.588;2022-11-04T02:33:18;13.00;99.90
18406;DHT22;9329;48.720;9.588;2022-11-04T02:35:56;13.10;99.90
18406;DHT22;9329;48.720;9.588;2022-11-04T02:38:32;12.80;99.90
18406;DHT22;9329;48.720;9.588;2022-11-04T02:41:06;12.60;99.90
18406;DHT22;9329;48.720;9.588;2022-11-04T02:43:46;12.50;99.90
18406;DHT22;9329;48.720;9.588;2022-11-04T02:46:19;12.70;99.90
18406;DHT22;9329;48.720;9.588;2022-11-04T02:48:54;12.80;99.90
18406;DHT22;9329;48.720;9.588;2022-11-04T02:51:27;12.90;99.90
18406;DHT22;9329;48.720;9.588;2022-11-04T02:54:01;12.90;99.90
18406;DHT22;9329;48.720;9.588;2022-11-04T02:56:30;12.60;99.90
18406;DHT22;9329;48.720;9.588;2022-11-04T02:59:02;12.80;99.90
18406;DHT22;9329;48.720;9.588;2022-11-04T03:01:34;12.70;99.90
18406;DHT22;9329;48.720;9.588;2022-11-04T03:04:06;12.70;99.90
18406;DHT22;9329;48.720;9.588;2022-11-04T03:06:35;12.90;99.90
18406;DHT22;9329;48.720;9.588;2022-11-04T03:09:03;12.90;99.90
18406;DHT22;9329;48.720;9.588;2022-11-04T03:11:31;12.70;99.90
18406;DHT22;9329;48.720;9.588;2022-11-04T03:14:02;12.90;99.90
18406;DHT22;9329;48.720;9.588;2022-11-04T03:16:36;13.00;99.90
18406;DHT22;9329;48.720;9.588;2022-11-04T03:19:09;12.60;99.90
18406;DHT22;9329;48.720;9.588;2022-11-04T03:21:42;12.60;99.90
18406;DHT22;9329;48.720;9.588;2022-11-04T03:24:13;12.30;99.90
18406;DHT22;9329;48.720;9.588;2022-11-04T03:26:43;12.00;99.90
18406;DHT22;9329;48.720;9.588;2022-11-04T03:29:21;12.10;99.90
18406;DHT22;9329;48.720;9.588;2022-11-04T03:31:59;12.50;99.90
18406;DHT22;9329;48.720;9.588;2022-11-04T03:34:28;12.00;99.90
18406;DHT22;9329;48.720;9.588;2022-11-04T03:36:56;12.60;99.90
18406;DHT22;9329;48.720;9.588;2022-11-04T03:39:23;12.10;99.90
18406;DHT22;9329;48.720;9.588;2022-11-04T03:41:52;12.20;99.90
18406;DHT22;9329;48.720;9.588;2022-11-04T03:44:20;12.30;99.90
18406;DHT22;9329;48.720;9.588;2022-11-04T03:46:47;12.40;99.90
18406;DHT22;9329;48.720;9.588;2022-11-04T03:49:16;12.50;99.90
18406;DHT22;9329;48.720;9.588;2022-11-04T03:51:43;12.50;99.90
18406;DHT22;9329;48.720;9.588;2022-11-04T03:54:10;12.60;99.90
18406;DHT22;9329;48.720;9.588;2022-11-04T04:00:03;12.50;99.90
18406;DHT22;9329;48.720;9.588;2022-11-04T04:02:38;12.50;99.90
18406;DHT22;9329;48.720;9.588;2022-11-04T04:05:14;12.30;99.90
18406;DHT22;9329;48.720;9.588;2022-11-04T04:07:45;12.70;99.90
18406;DHT22;9329;48.720;9.588;2022-11-04T04:10:19;12.70;99.90
18406;DHT22;9329;48.720;9.588;2022-11-04T04:13:21;12.70;99.90
18406;DHT22;9329;48.720;9.588;2022-11-04T04:15:53;12.70;99.90
18406;DHT22;9329;48.720;9.588;2022-11-04T04:18:28;12.50;99.90
18406;DHT22;9329;48.720;9.588;2022-11-04T04:21:00;12.60;99.90
18406;DHT22;9329;48.720;9.588;2022-11-04T04:23:30;12.80;99.90
18406;DHT22;9329;48.720;9.588;2022-11-04T04:26:18;12.70;99.90
18406;DHT22;9329;48.720;9.588;2022-11-04T04:29:03;12.50;99.90
18406;DHT22;9329;48.720;9.588;2022-11-04T04:31:32;12.40;99.90
18406;DHT22;9329;48.720;9.588;2022-11-04T04:34:18;12.30;99.90
18406;DHT22;9329;48.720;9.588;2022-11-04T04:36:52;12.40;99.90
18406;DHT22;9329;48.720;9.588;2022-11-04T04:39:22;12.10;99.90
18406;DHT22;9329;48.720;9.588;2022-11-04T04:42:08;12.10;99.90
18406;DHT22;9329;48.720;9.588;2022-11-04T04:44:53;12.20;99.90
18406;DHT22;9329;48.720;9.588;2022-11-04T04:47:30;12.40;99.90
18406;DHT22;9329;48.720;9.588;2022-11-04T04:49:59;12.40;99.90
18406;DHT22;9329;48.720;9.588;2022-11-04T04:52:30;12.60;99.90
18406;DHT22;9329;48.720;9.588;2022-11-04T04:54:57;12.30;99.90
18406;DHT22;9329;48.720;9.588;2022-11-04T04:57:24;12.20;99.90
18406;DHT22;9329;48.720;9.588;2022-11-04T04:59:51;11.90;99.90
18406;DHT22;9329;48.720;9.588;2022-11-04T05:02:18;12.10;99.90
18406;DHT22;9329;48.720;9.588;2022-11-04T05:04:45;11.90;99.90
18406;DHT22;9329;48.720;9.588;2022-11-04T05:07:12;12.10;99.90
18406;DHT22;9329;48.720;9.588;2022-11-04T05:09:40;12.20;99.90
18406;DHT22;9329;48.720;9.588;2022-11-04T05:12:08;12.20;99.90
18406;DHT22;9329;48.720;9.588;2022-11-04T05:14:35;12.10;99.90
18406;DHT22;9329;48.720;9.588;2022-11-04T05:17:02;12.30;99.90
18406;DHT22;9329;48.720;9.588;2022-11-04T05:19:29;12.10;99.90
18406;DHT22;9329;48.720;9.588;2022-11-04T05:21:57;12.10;99.90
18406;DHT22;9329;48.720;9.588;2022-11-04T05:24:24;12.50;99.90
18406;DHT22;9329;48.720;9.588;2022-11-04T05:26:52;12.50;99.90
18406;DHT22;9329;48.720;9.588;2022-11-04T05:29:19;12.20;99.90
18406;DHT22;9329;48.720;9.588;2022-11-04T05:31:49;12.20;99.90
18406;DHT22;9329;48.720;9.588;2022-11-04T05:34:16;12.10;99.90
18406;DHT22;9329;48.720;9.588;2022-11-04T05:36:43;12.10;99.90
18406;DHT22;9329;48.720;9.588;2022-11-04T05:39:11;11.90;99.90
18406;DHT22;9329;48.720;9.588;2022-11-04T05:41:39;12.20;99.90
18406;DHT22;9329;48.720;9.588;2022-11-04T05:44:08;12.00;99.90
18406;DHT22;9329;48.720;9.588;2022-11-04T05:46:35;12.10;99.90
18406;DHT22;9329;48.720;9.588;2022-11-04T05:49:02;11.90;99.90
18406;DHT22;9329;48.720;9.588;2022-11-04T05:51:29;11.80;99.90
18406;DHT22;9329;48.720;9.588;2022-11-04T05:53:57;11.90;99.90
18406;DHT22;9329;48.720;9.588;2022-11-04T05:56:24;11.90;99.90
18406;DHT22;9329;48.720;9.588;2022-11-04T05:58:51;11.90;99.90
18406;DHT22;9329;48.720;9.588;2022-11-04T06:01:30;11.80;99.90
18406;DHT22;9329;48.720;9.588;2022-11-04T06:03:59;11.60;99.90
18406;DHT22;9329;48.720;9.588;2022-11-04T06:06:28;11.50;99.90
18406;DHT22;9329;48.720;9.588;2022-11-04T06:08:56;11.50;99.90
18406;DHT22;9329;48.720;9.588;2022-11-04T06:11:25;11.80;99.90
18406;DHT22;9329;48.720;9.588;2022-11-04T06:13:53;11.80;99.90
18406;DHT22;9329;48.720;9.588;2022-11-04T06:16:21;11.70;99.90
18406;DHT22;9329;48.720;9.588;2022-11-04T06:18:49;11.70;99.90
18406;DHT22;9329;48.720;9.588;2022-11-04T06:21:23;11.80;99.90
18406;DHT22;9329;48.720;9.588;2022-11-04T06:23:51;11.90;99.90
18406;DHT22;9329;48.720;9.588;2022-11-04T06:26:18;11.90;99.90
18406;DHT22;9329;48.720;9.588;2022-11-04T06:28:46;12.10;99.90
18406;DHT22;9329;48.720;9.588;2022-11-04T06:31:14;11.70;99.90
18406;DHT22;9329;48.720;9.588;2022-11-04T06:33:41;11.80;99.90
18406;DHT22;9329;48.720;9.588;2022-11-04T06:36:11;11.10;99.90
18406;DHT22;9329;48.720;9.588;2022-11-04T06:38:39;11.60;99.90
18406;DHT22;9329;48.720;9.588;2022-11-04T06:41:09;11.40;99.90
18406;DHT22;9329;48.720;9.588;2022-11-04T06:43:37;11.70;99.90
18406;DHT22;9329;48.720;9.588;2022-11-04T06:46:05;11.90;99.90
18406;DHT22;9329;48.720;9.588;2022-11-04T06:48:34;11.60;99.90
18406;DHT22;9329;48.720;9.588;2022-11-04T06:51:01;11.80;99.90
18406;DHT22;9329;48.720;9.588;2022-11-04T06:53:30;11.70;99.90
18406;DHT22;9329;48.720;9.588;2022-11-04T06:56:01;11.60;99.90
18406;DHT22;9329;48.720;9.588;2022-11-04T06:58:30;11.50;99.90
18406;DHT22;9329;48.720;9.588;2022-11-04T07:00:57;11.70;99.90
18406;DHT22;9329;48.720;9.588;2022-11-04T07:03:24;12.10;99.90
18406;DHT22;9329;48.720;9.588;2022-11-04T07:05:51;11.70;99.90
18406;DHT22;9329;48.720;9.588;2022-11-04T07:08:18;12.20;99.90
18406;DHT22;9329;48.720;9.588;2022-11-04T07:10:47;12.30;99.90
18406;DHT22;9329;48.720;9.588;2022-11-04T07:13:14;12.00;99.90
18406;DHT22;9329;48.720;9.588;2022-11-04T07:15:42;11.90;99.90
18406;DHT22;9329;48.720;9.588;2022-11-04T07:18:09;11.80;99.90
18406;DHT22;9329;48.720;9.588;2022-11-04T07:20:37;11.40;99.90
18406;DHT22;9329;48.720;9.588;2022-11-04T07:23:04;10.90;99.90
18406;DHT22;9329;48.720;9.588;2022-11-04T07:25:31;11.20;99.90
18406;DHT22;9329;48.720;9.588;2022-11-04T07:28:01;11.20;99.90
18406;DHT22;9329;48.720;9.588;2022-11-04T07:30:29;11.50;99.90
18406;DHT22;9329;48.720;9.588;2022-11-04T07:32:56;11.20;99.90
18406;DHT22;9329;48.720;9.588;2022-11-04T07:35:23;11.30;99.90
18406;DHT22;9329;48.720;9.588;2022-11-04T07:37:50;11.70;99.90
18406;DHT22;9329;48.720;9.588;2022-11-04T07:40:18;12.10;99.90
18406;DHT22;9329;48.720;9.588;2022-11-04T07:42:45;11.90;99.90
18406;DHT22;9329;48.720;9.588;2022-11-04T07:45:17;12.30;99.90
18406;DHT22;9329;48.720;9.588;2022-11-04T07:47:44;12.50;99.90
18406;DHT22;9329;48.720;9.588;2022-11-04T07:50:12;12.90;99.90
18406;DHT22;9329;48.720;9.588;2022-11-04T07:52:39;13.00;99.90
18406;DHT22;9329;48.720;9.588;2022-11-04T07:55:06;13.00;99.90
18406;DHT22;9329;48.720;9.588;2022-11-04T07:57:34;13.00;99.90
18406;DHT22;9329;48.720;9.588;2022-11-04T08:00:02;13.40;99.90
18406;DHT22;9329;48.720;9.588;2022-11-04T08:02:39;13.30;99.90
18406;DHT22;9329;48.720;9.588;2022-11-04T08:05:07;13.00;99.90
18406;DHT22;9329;48.720;9.588;2022-11-04T08:07:34;12.40;99.90
18406;DHT22;9329;48.720;9.588;2022-11-04T08:10:02;12.00;99.90
18406;DHT22;9329;48.720;9.588;2022-11-04T08:12:30;12.80;99.90
18406;DHT22;9329;48.720;9.588;2022-11-04T08:14:58;13.10;99.90
18406;DHT22;9329;48.720;9.588;2022-11-04T08:17:25;13.50;99.90
18406;DHT22;9329;48.720;9.588;2022-11-04T08:19:53;13.70;99.90
18406;DHT22;9329;48.720;9.588;2022-11-04T08:22:22;13.90;99.90
18406;DHT22;9329;48.720;9.588;2022-11-04T08:24:49;13.70;99.90
18406;DHT22;9329;48.720;9.588;2022-11-04T08:27:16;13.70;99.90
18406;DHT22;9329;48.720;9.588;2022-11-04T08:29:44;13.10;99.90
18406;DHT22;9329;48.720;9.588;2022-11-04T08:32:11;12.90;99.90
18406;DHT22;9329;48.720;9.588;2022-11-04T08:34:38;13.20;99.90
18406;DHT22;9329;48.720;9.588;2022-11-04T08:37:08;13.80;99.90
18406;DHT22;9329;48.720;9.588;2022-11-04T08:39:36;14.00;99.90
18406;DHT22;9329;48.720;9.588;2022-11-04T08:42:03;13.80;99.90
18406;DHT22;9329;48.720;9.588;2022-11-04T08:44:32;13.80;99.90
18406;DHT22;9329;48.720;9.588;2022-11-04T08:47:00;14.00;99.90
18406;DHT22;9329;48.720;9.588;2022-11-04T08:49:28;14.00;99.90
18406;DHT22;9329;48.720;9.588;2022-11-04T08:51:56;14.30;99.90
18406;DHT22;9329;48.720;9.588;2022-11-04T08:54:26;14.00;99.90
18406;DHT22;9329;48.720;9.588;2022-11-04T08:56:54;14.50;99.90
18406;DHT22;9329;48.720;9.588;2022-11-04T08:59:21;14.10;99.90
18406;DHT22;9329;48.720;9.588;2022-11-04T09:01:49;13.90;99.90
18406;DHT22;9329;48.720;9.588;2022-11-04T09:04:17;14.20;99.90
18406;DHT22;9329;48.720;9.588;2022-11-04T09:06:45;13.90;99.90
18406;DHT22;9329;48.720;9.588;2022-11-04T09:09:15;14.20;99.90
18406;DHT22;9329;48.720;9.588;2022-11-04T09:11:45;14.70;99.90
18406;DHT22;9329;48.720;9.588;2022-11-04T09:14:13;14.90;99.90
18406;DHT22;9329;48.720;9.588;2022-11-04T09:16:42;14.60;99.90
18406;DHT22;9329;48.720;9.588;2022-11-04T09:19:10;14.70;99.90
18406;DHT22;9329;48.720;9.588;2022-11-04T09:21:37;15.00;99.90
18406;DHT22;9329;48.720;9.588;2022-11-04T09:24:05;15.20;99.90
18406;DHT22;9329;48.720;9.588;2022-11-04T09:26:33;14.70;99.90
18406;DHT22;9329;48.720;9.588;2022-11-04T09:29:01;15.00;99.90
18406;DHT22;9329;48.720;9.588;2022-11-04T09:31:29;14.90;99.90
18406;DHT22;9329;48.720;9.588;2022-11-04T09:34:00;15.20;99.90
18406;DHT22;9329;48.720;9.588;2022-11-04T09:36:28;15.50;99.90
18406;DHT22;9329;48.720;9.588;2022-11-04T09:38:55;15.70;99.90
18406;DHT22;9329;48.720;9.588;2022-11-04T09:44:23;15.90;99.90
18406;DHT22;9329;48.720;9.588;2022-11-04T09:46:55;15.90;99.90
18406;DHT22;9329;48.720;9.588;2022-11-04T09:49:25;16.20;99.90
18406;DHT22;9329;48.720;9.588;2022-11-04T09:51:54;16.10;99.90
18406;DHT22;9329;48.720;9.588;2022-11-04T09:54:24;15.80;99.90
18406;DHT22;9329;48.720;9.588;2022-11-04T09:56:57;16.00;99.90
18406;DHT22;9329;48.720;9.588;2022-11-04T09:59:28;16.20;99.90
18406;DHT22;9329;48.720;9.588;2022-11-04T10:02:16;16.00;99.90
18406;DHT22;9329;48.720;9.588;2022-11-04T10:04:54;16.10;99.90
18406;DHT22;9329;48.720;9.588;2022-11-04T10:10:25;16.10;99.90
18406;DHT22;9329;48.720;9.588;2022-11-04T10:13:10;15.30;99.90
18406;DHT22;9329;48.720;9.588;2022-11-04T10:15:52;14.90;99.90
18406;DHT22;9329;48.720;9.588;2022-11-04T10:18:33;14.80;99.90
18406;DHT22;9329;48.720;9.588;2022-11-04T10:21:10;14.90;99.90
18406;DHT22;9329;48.720;9.588;2022-11-04T10:23:43;15.50;99.90
18406;DHT22;9329;48.720;9.588;2022-11-04T10:26:14;16.00;99.90
18406;DHT22;9329;48.720;9.588;2022-11-04T10:28:44;15.30;99.90
18406;DHT22;9329;48.720;9.588;2022-11-04T10:31:16;14.90;99.90
18406;DHT22;9329;48.720;9.588;2022-11-04T10:33:47;15.10;99.90
18406;DHT22;9329;48.720;9.588;2022-11-04T10:36:16;14.70;99.90
18406;DHT22;9329;48.720;9.588;2022-11-04T10:38:46;15.00;99.90
18406;DHT22;9329;48.720;9.588;2022-11-04T10:41:23;15.50;99.90
18406;DHT22;9329;48.720;9.588;2022-11-04T10:43:55;15.40;99.90
18406;DHT22;9329;48.720;9.588;2022-11-04T10:46:39;15.00;99.90
18406;DHT22;9329;48.720;9.588;2022-11-04T10:49:33;15.10;99.90
18406;DHT22;9329;48.720;9.588;2022-11-04T10:52:04;15.50;99.90
18406;DHT22;9329;48.720;9.588;2022-11-04T10:54:37;15.80;99.90
18406;DHT22;9329;48.720;9.588;2022-11-04T10:57:04;16.10;99.90
18406;DHT22;9329;48.720;9.588;2022-11-04T10:59:41;16.40;99.90
18406;DHT22;9329;48.720;9.588;2022-11-04T11:02:14;16.30;99.90
18406;DHT22;9329;48.720;9.588;2022-11-04T11:04:41;16.40;99.90
18406;DHT22;9329;48.720;9.588;2022-11-04T11:07:12;16.60;99.90
18406;DHT22;9329;48.720;9.588;2022-11-04T11:09:49;16.70;99.90
18406;DHT22;9329;48.720;9.588;2022-11-04T11:12:20;16.60;99.90
18406;DHT22;9329;48.720;9.588;2022-11-04T11:14:55;16.20;99.90
18406;DHT22;9329;48.720;9.588;2022-11-04T11:17:34;16.60;99.90
18406;DHT22;9329;48.720;9.588;2022-11-04T11:20:14;16.70;99.90
18406;DHT22;9329;48.720;9.588;2022-11-04T11:22:45;16.00;99.90
18406;DHT22;9329;48.720;9.588;2022-11-04T11:25:21;16.00;99.90
18406;DHT22;9329;48.720;9.588;2022-11-04T11:27:50;16.10;99.90
18406;DHT22;9329;48.720;9.588;2022-11-04T11:30:23;16.70;99.90
18406;DHT22;9329;48.720;9.588;2022-11-04T11:32:55;16.90;99.90
18406;DHT22;9329;48.720;9.588;2022-11-04T11:35:27;16.50;99.90
18406;DHT22;9329;48.720;9.588;2022-11-04T11:37:55;17.10;99.90
18406;DHT22;9329;48.720;9.588;2022-11-04T11:40:28;17.20;99.90
18406;DHT22;9329;48.720;9.588;2022-11-04T11:42:58;17.30;99.90
18406;DHT22;9329;48.720;9.588;2022-11-04T11:45:26;16.30;99.90
18406;DHT22;9329;48.720;9.588;2022-11-04T11:47:55;16.80;99.90
18406;DHT22;9329;48.720;9.588;2022-11-04T11:50:24;17.40;99.90
18406;DHT22;9329;48.720;9.588;2022-11-04T11:53:15;17.80;99.90
18406;DHT22;9329;48.720;9.588;2022-11-04T11:55:47;17.80;99.90
18406;DHT22;9329;48.720;9.588;2022-11-04T11:58:22;17.90;99.90
18406;DHT22;9329;48.720;9.588;2022-11-04T12:00:55;17.50;99.90
18406;DHT22;9329;48.720;9.588;2022-11-04T12:03:29;16.90;99.90
18406;DHT22;9329;48.720;9.588;2022-11-04T12:06:22;17.40;99.90
18406;DHT22;9329;48.720;9.588;2022-11-04T12:09:08;17.40;99.90
18406;DHT22;9329;48.720;9.588;2022-11-04T12:11:49;17.10;99.90
18406;DHT22;9329;48.720;9.588;2022-11-04T12:14:21;16.90;99.90
18406;DHT22;9329;48.720;9.588;2022-11-04T12:17:01;16.50;99.90
18406;DHT22;9329;48.720;9.588;2022-11-04T12:19:50;16.60;99.90
18406;DHT22;9329;48.720;9.588;2022-11-04T12:22:27;17.00;99.90
18406;DHT22;9329;48.720;9.588;2022-11-04T12:25:04;17.30;99.90
18406;DHT22;9329;48.720;9.588;2022-11-04T12:27:39;17.60;99.90
18406;DHT22;9329;48.720;9.588;2022-11-04T12:30:08;17.70;99.90
18406;DHT22;9329;48.720;9.588;2022-11-04T12:32:57;17.30;99.90
18406;DHT22;9329;48.720;9.588;2022-11-04T12:35:51;18.00;99.90
18406;DHT22;9329;48.720;9.588;2022-11-04T12:38:40;18.10;99.90
18406;DHT22;9329;48.720;9.588;2022-11-04T12:41:17;17.30;99.90
18406;DHT22;9329;48.720;9.588;2022-11-04T12:43:49;17.10;99.90
18406;DHT22;9329;48.720;9.588;2022-11-04T12:46:23;17.60;99.90
18406;DHT22;9329;48.720;9.588;2022-11-04T12:49:08;17.70;99.90
18406;DHT22;9329;48.720;9.588;2022-11-04T12:51:46;17.80;99.90
18406;DHT22;9329;48.720;9.588;2022-11-04T12:57:29;17.60;99.90
18406;DHT22;9329;48.720;9.588;2022-11-04T13:00:07;16.40;99.90
18406;DHT22;9329;48.720;9.588;2022-11-04T13:02:39;17.00;99.90
18406;DHT22;9329;48.720;9.588;2022-11-04T13:08:06;17.40;99.90
18406;DHT22;9329;48.720;9.588;2022-11-04T13:10:39;17.40;99.90
18406;DHT22;9329;48.720;9.588;2022-11-04T13:13:10;17.40;99.90
18406;DHT22;9329;48.720;9.588;2022-11-04T13:15:43;16.60;99.90
18406;DHT22;9329;48.720;9.588;2022-11-04T13:18:15;16.60;99.90
18406;DHT22;9329;48.720;9.588;2022-11-04T13:20:49;16.40;99.90
18406;DHT22;9329;48.720;9.588;2022-11-04T13:23:23;16.20;99.90
18406;DHT22;9329;48.720;9.588;2022-11-04T13:25:51;16.70;99.90
18406;DHT22;9329;48.720;9.588;2022-11-04T13:28:20;16.50;99.90
18406;DHT22;9329;48.720;9.588;2022-11-04T13:30:54;16.60;99.90
18406;DHT22;9329;48.720;9.588;2022-11-04T13:33:34;17.00;99.90
18406;DHT22;9329;48.720;9.588;2022-11-04T13:36:14;17.10;99.90
18406;DHT22;9329;48.720;9.588;2022-11-04T13:38:49;16.80;99.90
18406;DHT22;9329;48.720;9.588;2022-11-04T13:41:45;17.00;99.90
18406;DHT22;9329;48.720;9.588;2022-11-04T13:44:22;17.10;99.90
18406;DHT22;9329;48.720;9.588;2022-11-04T13:46:51;17.20;99.90
18406;DHT22;9329;48.720;9.588;2022-11-04T13:49:23;16.40;99.90
18406;DHT22;9329;48.720;9.588;2022-11-04T13:52:04;16.80;99.90
18406;DHT22;9329;48.720;9.588;2022-11-04T13:54:40;16.90;99.90
18406;DHT22;9329;48.720;9.588;2022-11-04T13:57:11;16.50;99.90
18406;DHT22;9329;48.720;9.588;2022-11-04T13:59:39;16.80;99.90
18406;DHT22;9329;48.720;9.588;2022-11-04T14:02:35;16.60;99.90
18406;DHT22;9329;48.720;9.588;2022-11-04T14:08:18;16.90;99.90
18406;DHT22;9329;48.720;9.588;2022-11-04T14:11:01;16.70;99.90
18406;DHT22;9329;48.720;9.588;2022-11-04T14:16:43;15.70;99.90
18406;DHT22;9329;48.720;9.588;2022-11-04T14:22:21;16.10;99.90
18406;DHT22;9329;48.720;9.588;2022-11-04T14:24:54;16.80;99.90
18406;DHT22;9329;48.720;9.588;2022-11-04T14:27:29;17.00;99.90
18406;DHT22;9329;48.720;9.588;2022-11-04T14:29:58;17.00;99.90
18406;DHT22;9329;48.720;9.588;2022-11-04T14:32:30;17.40;99.90
18406;DHT22;9329;48.720;9.588;2022-11-04T14:35:01;17.90;99.90
18406;DHT22;9329;48.720;9.588;2022-11-04T14:37:32;18.90;99.90
18406;DHT22;9329;48.720;9.588;2022-11-04T14:40:01;19.10;99.90
18406;DHT22;9329;48.720;9.588;2022-11-04T14:42:47;19.80;99.90
18406;DHT22;9329;48.720;9.588;2022-11-04T14:45:19;19.50;99.90
18406;DHT22;9329;48.720;9.588;2022-11-04T14:47:50;18.90;99.90
18406;DHT22;9329;48.720;9.588;2022-11-04T14:50:20;18.70;99.90
18406;DHT22;9329;48.720;9.588;2022-11-04T14:52:50;19.20;99.90
18406;DHT22;9329;48.720;9.588;2022-11-04T14:55:20;18.50;99.90
18406;DHT22;9329;48.720;9.588;2022-11-04T14:57:50;18.10;99.90
18406;DHT22;9329;48.720;9.588;2022-11-04T15:00:28;18.20;99.90
18406;DHT22;9329;48.720;9.588;2022-11-04T15:03:03;18.50;99.90
18406;DHT22;9329;48.720;9.588;2022-11-04T15:05:31;18.20;99.90
18406;DHT22;9329;48.720;9.588;2022-11-04T15:08:01;17.90;99.90
18406;DHT22;9329;48.720;9.588;2022-11-04T15:10:29;17.80;99.90
18406;DHT22;9329;48.720;9.588;2022-11-04T15:13:00;17.80;99.90
18406;DHT22;9329;48.720;9.588;2022-11-04T15:15:33;17.00;99.90
18406;DHT22;9329;48.720;9.588;2022-11-04T15:18:05;17.00;99.90
18406;DHT22;9329;48.720;9.588;2022-11-04T15:20:36;17.10;99.90
18406;DHT22;9329;48.720;9.588;2022-11-04T15:23:11;16.90;99.90
18406;DHT22;9329;48.720;9.588;2022-11-04T15:25:46;16.50;99.90
18406;DHT22;9329;48.720;9.588;2022-11-04T15:28:20;16.20;99.90
18406;DHT22;9329;48.720;9.588;2022-11-04T15:31:07;16.20;99.90
18406;DHT22;9329;48.720;9.588;2022-11-04T15:33:38;16.00;99.90
18406;DHT22;9329;48.720;9.588;2022-11-04T15:36:09;15.60;99.90
18406;DHT22;9329;48.720;9.588;2022-11-04T15:38:43;15.40;99.90
18406;DHT22;9329;48.720;9.588;2022-11-04T15:41:12;15.30;99.90
18406;DHT22;9329;48.720;9.588;2022-11-04T15:43:58;15.50;99.90
18406;DHT22;9329;48.720;9.588;2022-11-04T15:46:26;15.30;99.90
18406;DHT22;9329;48.720;9.588;2022-11-04T15:49:02;15.20;99.90
18406;DHT22;9329;48.720;9.588;2022-11-04T15:51:33;15.30;99.90
18406;DHT22;9329;48.720;9.588;2022-11-04T15:54:04;15.10;99.90
18406;DHT22;9329;48.720;9.588;2022-11-04T15:56:33;15.00;99.90
18406;DHT22;9329;48.720;9.588;2022-11-04T15:59:07;15.00;99.90
18406;DHT22;9329;48.720;9.588;2022-11-04T16:01:43;14.90;99.90
18406;DHT22;9329;48.720;9.588;2022-11-04T16:04:11;15.00;99.90
18406;DHT22;9329;48.720;9.588;2022-11-04T16:06:40;15.10;99.90
18406;DHT22;9329;48.720;9.588;2022-11-04T16:09:19;14.80;99.90
18406;DHT22;9329;48.720;9.588;2022-11-04T16:12:05;14.70;99.90
18406;DHT22;9329;48.720;9.588;2022-11-04T16:14:34;14.40;99.90
18406;DHT22;9329;48.720;9.588;2022-11-04T16:17:02;14.90;99.90
18406;DHT22;9329;48.720;9.588;2022-11-04T16:19:29;14.80;99.90
18406;DHT22;9329;48.720;9.588;2022-11-04T16:21:58;14.30;99.90
18406;DHT22;9329;48.720;9.588;2022-11-04T16:24:29;14.10;99.90
18406;DHT22;9329;48.720;9.588;2022-11-04T16:26:57;14.30;99.90
18406;DHT22;9329;48.720;9.588;2022-11-04T16:29:26;14.20;99.90
18406;DHT22;9329;48.720;9.588;2022-11-04T16:32:15;13.90;99.90
18406;DHT22;9329;48.720;9.588;2022-11-04T16:34:43;13.80;99.90
18406;DHT22;9329;48.720;9.588;2022-11-04T16:37:10;13.80;99.90
18406;DHT22;9329;48.720;9.588;2022-11-04T16:39:38;13.30;99.90
18406;DHT22;9329;48.720;9.588;2022-11-04T16:42:05;13.80;99.90